Symphony Sea — PDDJ — position and weather

sailwx.info

Track history (hours):
 
Tides and Currents Weather Stations Pressure Air Temp Water Temp Dewpoint Dewpoint Depression Visibility Wind Speed Wind Dir Waves Ship Positions

Symphony Sea

Last reported at 2018-Feb-23 19:58 UTC. Time now 2018-Feb-23 20:19 UTC.
Position N 51°41' E 004°36'.

Length 120 m; draft 5.6 m.

Type: Cargo ship. MMSI: 244770273.

Date/timePositionNaut miles runAvg speedWind from/ knotsBaromVisibWave heightAir tempDewpointWater temp
2018-Feb-23 19:58N 51°41' E 004°36'0 0.0
2018-Feb-23 19:28N 51°41' E 004°36'0 0.0
2018-Feb-23 18:58N 51°41' E 004°36'0 0.0
2018-Feb-23 18:28N 51°41' E 004°36'0 0.0
2018-Feb-23 17:58N 51°41' E 004°36'0 0.0
2018-Feb-23 17:28N 51°41' E 004°36'0 0.0
2018-Feb-23 16:58N 51°41' E 004°36'0 0.0
2018-Feb-23 16:28N 51°41' E 004°36'0 0.0
2018-Feb-23 15:58N 51°41' E 004°36'0 0.0
2018-Feb-23 15:28N 51°41' E 004°36'0 0.0
2018-Feb-23 14:58N 51°41' E 004°36'0 0.0
2018-Feb-23 14:28N 51°41' E 004°36'0 0.0
2018-Feb-23 13:58N 51°41' E 004°36'0 0.0
2018-Feb-23 13:28N 51°41' E 004°36'0 0.0
2018-Feb-23 12:58N 51°41' E 004°36'0 0.0
2018-Feb-23 12:28N 51°41' E 004°36'0 0.0
2018-Feb-23 11:58N 51°41' E 004°36'0 0.0
2018-Feb-23 11:28N 51°41' E 004°36'0 0.0
2018-Feb-23 10:58N 51°41' E 004°36'0 0.0
2018-Feb-23 10:28N 51°41' E 004°36'0 0.0
2018-Feb-23 09:58N 51°41' E 004°36'0 0.0
2018-Feb-23 09:28N 51°41' E 004°36'0 0.0
2018-Feb-23 08:58N 51°41' E 004°36'0 0.0
2018-Feb-23 08:25N 51°41' E 004°36'0 0.0
2018-Feb-23 07:58N 51°41' E 004°36'0 0.0
2018-Feb-23 07:28N 51°41' E 004°36'0 0.0
2018-Feb-23 06:58N 51°41' E 004°36'0 0.0
2018-Feb-23 06:28N 51°41' E 004°36'0 0.0
2018-Feb-23 05:58N 51°41' E 004°36'0 0.0
2018-Feb-23 05:28N 51°41' E 004°36'0 0.0
2018-Feb-23 04:58N 51°41' E 004°36'0 0.0
2018-Feb-23 04:28N 51°41' E 004°36'0 0.0
2018-Feb-23 03:58N 51°41' E 004°36'0 0.0
2018-Feb-23 03:28N 51°41' E 004°36'0 0.0
2018-Feb-23 02:55N 51°41' E 004°36'0 0.0
2018-Feb-23 02:28N 51°41' E 004°36'0 0.0
2018-Feb-23 01:58N 51°41' E 004°36'0 0.0
2018-Feb-23 01:28N 51°41' E 004°36'0 0.0
2018-Feb-23 00:58N 51°41' E 004°36'0 0.0
2018-Feb-23 00:22N 51°41' E 004°36'0 0.0
2018-Feb-22 23:58N 51°41' E 004°36'0 0.0
2018-Feb-22 23:28N 51°41' E 004°36'0 0.0
2018-Feb-22 22:58N 51°41' E 004°36'0 0.0
2018-Feb-22 22:28N 51°41' E 004°36'0 0.0
2018-Feb-22 21:55N 51°41' E 004°36'0 0.0
2018-Feb-22 21:30N 51°41' E 004°36'0 0.9
2018-Feb-22 21:00N 51°41' E 004°35'2 4.1
2018-Feb-22 20:30N 51°43' E 004°37'4 8.7
2018-Feb-22 20:00N 51°47' E 004°37'4 7.7
2018-Feb-22 19:30N 51°50' E 004°33'5 9.5
2018-Feb-22 19:00N 51°50' E 004°25'4 7.3
2018-Feb-22 18:30N 51°52' E 004°20'2 3.8
2018-Feb-22 18:00N 51°54' E 004°21'3 6.9
2018-Feb-22 17:30N 51°54' E 004°27'1 2.3
2018-Feb-22 17:01N 51°54' E 004°28'0 0.0
2018-Feb-22 16:30N 51°54' E 004°28'0 0.0
2018-Feb-22 16:00N 51°54' E 004°28'0 0.0
2018-Feb-22 15:30N 51°54' E 004°28'0 0.0
2018-Feb-22 15:01N 51°54' E 004°28'0 0.0
2018-Feb-22 14:31N 51°54' E 004°28'0 0.0
2018-Feb-22 14:01N 51°54' E 004°28'0 0.0
2018-Feb-22 13:31N 51°54' E 004°28'0 0.0
2018-Feb-22 13:01N 51°54' E 004°28'0 0.0
2018-Feb-22 12:30N 51°54' E 004°28'0 0.0
2018-Feb-22 12:01N 51°54' E 004°28'0 0.0
2018-Feb-22 11:31N 51°54' E 004°28'0 0.0
2018-Feb-22 11:00N 51°54' E 004°28'0 0.0
2018-Feb-22 10:31N 51°54' E 004°28'0 0.0
2018-Feb-22 10:01N 51°54' E 004°28'0 0.0
2018-Feb-22 09:31N 51°54' E 004°28'0 0.0
2018-Feb-22 09:00N 51°54' E 004°28'0 0.0
2018-Feb-22 08:30N 51°54' E 004°28'0 0.0
2018-Feb-22 07:57N 51°54' E 004°28'0 0.0
2018-Feb-22 07:30N 51°54' E 004°28'0 0.0
2018-Feb-22 06:57N 51°54' E 004°28'0 0.0
2018-Feb-22 06:31N 51°54' E 004°28'0 0.0
2018-Feb-22 06:01N 51°54' E 004°28'0 0.0
2018-Feb-22 05:31N 51°54' E 004°28'0 0.0
2018-Feb-22 05:00N 51°54' E 004°28'0 0.0
2018-Feb-22 04:31N 51°54' E 004°28'0 0.0
2018-Feb-22 04:00N 51°54' E 004°28'0 0.0
2018-Feb-22 03:31N 51°54' E 004°28'0 0.0
2018-Feb-22 03:00N 51°54' E 004°28'0 0.0
2018-Feb-22 02:31N 51°54' E 004°28'0 0.0
2018-Feb-22 02:00N 51°54' E 004°28'0 0.0
2018-Feb-22 01:31N 51°54' E 004°28'0 0.0
2018-Feb-22 01:01N 51°54' E 004°28'0 0.0
2018-Feb-22 00:31N 51°54' E 004°28'0 0.0
2018-Feb-22 00:01N 51°54' E 004°28'0 0.0
2018-Feb-21 23:31N 51°54' E 004°28'0 0.0
2018-Feb-21 23:01N 51°54' E 004°28'0 0.0
2018-Feb-21 22:30N 51°54' E 004°28'0 0.0
2018-Feb-21 22:00N 51°54' E 004°28'0 0.0
2018-Feb-21 21:31N 51°54' E 004°28'0 0.0
2018-Feb-21 21:01N 51°54' E 004°28'0 0.0
2018-Feb-21 20:31N 51°54' E 004°28'0 0.0
2018-Feb-21 20:00N 51°54' E 004°28'0 0.0
2018-Feb-21 19:30N 51°54' E 004°28'0 0.0
2018-Feb-21 19:00N 51°54' E 004°28'0 0.0
2018-Feb-21 18:31N 51°54' E 004°28'0 0.0
2018-Feb-21 18:01N 51°54' E 004°28'0 0.0
2018-Feb-21 17:31N 51°54' E 004°28'0 0.0
2018-Feb-21 17:01N 51°54' E 004°28'0 0.0
2018-Feb-21 16:31N 51°54' E 004°28'0 0.0
2018-Feb-21 16:00N 51°54' E 004°28'0 0.0
2018-Feb-21 15:31N 51°54' E 004°28'0 0.0
2018-Feb-21 15:01N 51°54' E 004°28'0 0.0
2018-Feb-21 14:30N 51°54' E 004°28'0 0.0
2018-Feb-21 14:01N 51°54' E 004°28'0 0.0
2018-Feb-21 13:31N 51°54' E 004°28'1 1.0
2018-Feb-21 13:00N 51°54' E 004°28'4 8.2
2018-Feb-21 12:31N 51°54' E 004°21'5 9.2
2018-Feb-21 12:01N 51°55' E 004°14'510.1
2018-Feb-21 11:30N 51°58' E 004°08'510.1
2018-Feb-21 11:01N 51°60' E 003°60'611.8
2018-Feb-21 10:30N 52°00' E 003°50'4 8.3
2018-Feb-21 10:00N 52°03' E 003°46'510.0
2018-Feb-21 09:30N 52°08' E 003°46'510.8
2018-Feb-21 09:01N 52°14' E 003°46'510.5
2018-Feb-21 08:30N 52°19' E 003°47'510.8
2018-Feb-21 08:00N 52°24' E 003°49'510.3
2018-Feb-21 07:30N 52°29' E 003°51'510.5
2018-Feb-21 07:00N 52°34' E 003°53'510.2
2018-Feb-21 06:30N 52°39' E 003°55'510.0
2018-Feb-21 06:01N 52°44' E 003°56'510.2
2018-Feb-21 05:30N 52°49' E 003°57'910.4
2018-Feb-21 04:35N 52°58' E 004°02'211.4
2018-Feb-21 04:27N 52°59' E 004°04'511.7
2018-Feb-21 03:59N 53°03' E 004°11'612.1
2018-Feb-21 03:28N 53°08' E 004°18'3812.0
2018-Feb-21 00:20N 53°42' E 004°43'411.2
2018-Feb-20 23:59N 53°46' E 004°46'511.1
2018-Feb-20 23:30N 53°51' E 004°49'611.1
2018-Feb-20 22:59N 53°56' E 004°52'611.2
2018-Feb-20 22:29N 54°01' E 004°56'25611.8
2018-Feb-20 00:49N 58°17' E 005°09'411.4
2018-Feb-20 00:30N 58°21' E 005°09'610.8
2018-Feb-19 23:57N 58°27' E 005°10'510.9
2018-Feb-19 23:30N 58°32' E 005°09'612.2
2018-Feb-19 23:00N 58°38' E 005°10'612.0
2018-Feb-19 22:30N 58°44' E 005°10'611.9
2018-Feb-19 22:01N 58°50' E 005°09'612.4
2018-Feb-19 21:31N 58°56' E 005°09'612.3
2018-Feb-19 21:00N 59°02' E 005°11'713.3
2018-Feb-19 20:30N 59°07' E 005°19'612.7
2018-Feb-19 20:00N 59°13' E 005°20'612.1
2018-Feb-19 19:30N 59°19' E 005°20'510.1
2018-Feb-19 19:00N 59°24' E 005°16'611.3
2018-Feb-19 18:30N 59°30' E 005°13'713.1
2018-Feb-19 18:00N 59°36' E 005°16'713.6
2018-Feb-19 17:30N 59°41' E 005°24'5 8.5
2018-Feb-19 16:57N 59°45' E 005°29'0 0.0
2018-Feb-19 16:27N 59°45' E 005°29'0 0.0
2018-Feb-19 15:59N 59°45' E 005°29'0 0.0
2018-Feb-19 15:29N 59°45' E 005°29'0 0.0
2018-Feb-19 14:59N 59°45' E 005°29'0 0.0
2018-Feb-19 14:29N 59°45' E 005°29'0 0.0
2018-Feb-19 13:59N 59°45' E 005°29'0 0.0
2018-Feb-19 13:29N 59°45' E 005°29'0 0.0
2018-Feb-19 13:00N 59°45' E 005°29'0 0.0
2018-Feb-19 12:26N 59°45' E 005°29'0 0.0
2018-Feb-19 11:59N 59°45' E 005°29'0 0.0
2018-Feb-19 11:29N 59°45' E 005°29'0 0.0
2018-Feb-19 10:56N 59°45' E 005°29'0 0.0
2018-Feb-19 10:29N 59°45' E 005°29'0 0.0
2018-Feb-19 09:56N 59°45' E 005°29'0 0.0
2018-Feb-19 09:29N 59°45' E 005°29'0 0.0
2018-Feb-19 08:56N 59°45' E 005°29'0 0.0
2018-Feb-19 08:29N 59°45' E 005°29'0 0.0
2018-Feb-19 07:59N 59°45' E 005°29'0 0.0
2018-Feb-19 07:29N 59°45' E 005°29'0 0.0
2018-Feb-19 06:59N 59°45' E 005°29'0 0.0
2018-Feb-19 06:26N 59°45' E 005°29'0 0.0
2018-Feb-19 05:59N 59°45' E 005°29'0 0.0
2018-Feb-19 05:29N 59°45' E 005°29'0 0.0
2018-Feb-19 04:59N 59°45' E 005°29'0 0.0
2018-Feb-19 04:29N 59°45' E 005°29'0 0.0
2018-Feb-19 03:56N 59°45' E 005°29'0 0.0
2018-Feb-19 03:20N 59°45' E 005°29'0 0.0
2018-Feb-19 02:59N 59°45' E 005°29'0 0.0
2018-Feb-19 02:29N 59°45' E 005°29'0 0.0
2018-Feb-19 02:00N 59°45' E 005°29'0 0.0
2018-Feb-19 01:29N 59°45' E 005°29'0 0.0
2018-Feb-19 00:56N 59°45' E 005°29'0 0.0
2018-Feb-19 00:23N 59°45' E 005°29'0 0.0
2018-Feb-19 00:00N 59°45' E 005°29'0 0.0
2018-Feb-18 23:29N 59°45' E 005°29'0 0.0
2018-Feb-18 22:59N 59°45' E 005°29'0 0.0
2018-Feb-18 22:29N 59°45' E 005°29'0 0.0
2018-Feb-18 21:57N 59°45' E 005°29'0 0.0
2018-Feb-18 21:29N 59°45' E 005°29'0 0.0
2018-Feb-18 21:00N 59°45' E 005°29'0 0.0
2018-Feb-18 20:26N 59°45' E 005°29'0 0.0
2018-Feb-18 19:59N 59°45' E 005°29'0 0.0
2018-Feb-18 19:29N 59°45' E 005°29'0 0.0
2018-Feb-18 18:59N 59°45' E 005°29'0 0.0
2018-Feb-18 18:29N 59°45' E 005°29'0 0.0
2018-Feb-18 18:00N 59°45' E 005°29'0 0.0
2018-Feb-18 17:23N 59°45' E 005°29'0 0.0
2018-Feb-18 16:59N 59°45' E 005°29'0 0.0
2018-Feb-18 16:29N 59°45' E 005°29'0 0.0
2018-Feb-18 15:59N 59°45' E 005°29'0 0.0
2018-Feb-18 15:29N 59°45' E 005°29'0 0.0
2018-Feb-18 14:59N 59°45' E 005°29'0 0.0
2018-Feb-18 14:29N 59°45' E 005°29'0 0.0
2018-Feb-18 13:59N 59°45' E 005°29'0 0.0
2018-Feb-18 13:27N 59°45' E 005°29'0 0.0
2018-Feb-18 12:53N 59°45' E 005°29'0 0.0
2018-Feb-18 12:29N 59°45' E 005°29'0 0.0
2018-Feb-18 11:59N 59°45' E 005°29'0 0.0
2018-Feb-18 11:30N 59°45' E 005°29'0 0.0
2018-Feb-18 11:00N 59°45' E 005°29'0 0.0
2018-Feb-18 10:30N 59°45' E 005°29'0 0.0
2018-Feb-18 09:59N 59°45' E 005°29'0 0.0
2018-Feb-18 09:29N 59°45' E 005°29'0 0.0
2018-Feb-18 08:53N 59°45' E 005°29'0 0.0
2018-Feb-18 08:29N 59°45' E 005°29'0 0.0
2018-Feb-18 07:59N 59°45' E 005°29'0 0.0
2018-Feb-18 07:26N 59°45' E 005°29'0 0.0
2018-Feb-18 07:00N 59°45' E 005°29'0 0.0
2018-Feb-18 06:29N 59°45' E 005°29'0 0.0
2018-Feb-18 05:59N 59°45' E 005°29'0 0.0
2018-Feb-18 05:29N 59°45' E 005°29'0 0.0
2018-Feb-18 05:00N 59°45' E 005°29'0 0.0
2018-Feb-18 04:29N 59°45' E 005°29'0 0.0
2018-Feb-18 03:59N 59°45' E 005°29'0 0.0
2018-Feb-18 03:26N 59°45' E 005°29'0 0.0
2018-Feb-18 02:59N 59°45' E 005°29'0 0.0
2018-Feb-18 02:30N 59°45' E 005°29'0 0.0
2018-Feb-18 01:53N 59°45' E 005°29'0 0.0
2018-Feb-18 01:29N 59°45' E 005°29'0 0.0
2018-Feb-18 01:00N 59°45' E 005°29'3 6.6
2018-Feb-18 00:29N 59°42' E 005°26'713.9
2018-Feb-18 00:00N 59°37' E 005°17'713.4
2018-Feb-17 23:30N 59°31' E 005°13'713.1
2018-Feb-17 23:01N 59°25' E 005°15'612.4
2018-Feb-17 22:30N 59°19' E 005°20'611.4
2018-Feb-17 22:00N 59°13' E 005°21'713.1
2018-Feb-17 21:28N 59°06' E 005°21'613.2
2018-Feb-17 21:00N 59°00' E 005°20'713.3
2018-Feb-17 20:30N 58°53' E 005°20'613.0
2018-Feb-17 20:00N 58°47' E 005°20'611.6
2018-Feb-17 19:30N 58°41' E 005°19'611.9
2018-Feb-17 19:00N 58°35' E 005°18'611.6
2018-Feb-17 18:31N 58°29' E 005°18'611.1
2018-Feb-17 18:00N 58°24' E 005°21'713.1
2018-Feb-17 17:30N 58°19' E 005°29'612.8
2018-Feb-17 17:01N 58°13' E 005°32'36612.8
2018-Feb-16 12:23N 52°15' E 003°20'512.6
2018-Feb-16 11:57N 52°11' E 003°14'612.2
2018-Feb-16 11:30N 52°07' E 003°08'612.0
2018-Feb-16 11:00N 52°02' E 003°01'611.8
2018-Feb-16 10:29N 51°58' E 002°55'1811.3
2018-Feb-16 08:54N 51°44' E 002°36'511.1
2018-Feb-16 08:29N 51°40' E 002°31'511.1
2018-Feb-16 08:00N 51°36' E 002°26'611.1
2018-Feb-16 07:30N 51°32' E 002°20'611.4
2018-Feb-16 07:00N 51°27' E 002°15'611.7
2018-Feb-16 06:30N 51°22' E 002°11'612.1
2018-Feb-16 06:00N 51°17' E 002°06'611.7
2018-Feb-16 05:30N 51°12' E 001°60'612.4
2018-Feb-16 05:00N 51°09' E 001°52'612.5
2018-Feb-16 04:30N 51°04' E 001°45'612.9
2018-Feb-16 04:01N 50°60' E 001°38'713.2
2018-Feb-16 03:30N 50°55' E 001°31'713.8
2018-Feb-16 03:00N 50°48' E 001°26'713.5
2018-Feb-16 02:28N 50°42' E 001°21'613.3
2018-Feb-16 02:00N 50°38' E 001°14'713.2
2018-Feb-16 01:28N 50°34' E 001°05'613.0
2018-Feb-16 00:59N 50°31' E 000°56'613.1
2018-Feb-16 00:31N 50°29' E 000°46'713.0
2018-Feb-16 00:00N 50°28' E 000°36'713.1
2018-Feb-15 23:30N 50°26' E 000°27'713.4
2018-Feb-15 23:01N 50°24' E 000°17'714.0
2018-Feb-15 22:30N 50°22' E 000°06'714.4
2018-Feb-15 22:00N 50°20' W 000°05'714.9
2018-Feb-15 21:30N 50°18' W 000°16'815.4
2018-Feb-15 20:58N 50°15' W 000°28'815.7
2018-Feb-15 20:27N 50°13' W 000°41'815.8
2018-Feb-15 19:58N 50°11' W 000°52'715.8
2018-Feb-15 19:30N 50°09' W 001°03'815.8
2018-Feb-15 19:00N 50°06' W 001°15'815.4
2018-Feb-15 18:30N 50°04' W 001°26'814.7
2018-Feb-15 17:59N 50°02' W 001°38'714.0
2018-Feb-15 17:30N 50°01' W 001°48'2012.4
2018-Feb-15 15:53N 49°55' W 002°18'511.2
2018-Feb-15 15:27N 49°53' W 002°25'610.9
2018-Feb-15 14:52N 49°51' W 002°34'410.8
2018-Feb-15 14:30N 49°50' W 002°40'510.8
2018-Feb-15 14:00N 49°49' W 002°48'710.8
2018-Feb-15 13:24N 49°46' W 002°57'511.0
2018-Feb-15 12:58N 49°44' W 003°04'511.2
2018-Feb-15 12:29N 49°41' W 003°11'15412.6
2018-Feb-15 00:17N 48°03' W 006°11'1013.6
2018-Feb-14 23:31N 47°54' W 006°18'013.3
2018-Feb-14 23:29N 47°54' W 006°19'613.1
2018-Feb-14 23:00N 47°48' W 006°23'712.9
2018-Feb-14 22:28N 47°42' W 006°28'  
Track history (hours):
 
Tides and Currents Weather Stations Pressure Air Temp Water Temp Dewpoint Dewpoint Depression Visibility Wind Speed Wind Dir Waves Ship Positions

Symphony Sea

Last reported at 2018-Feb-23 19:58 UTC. Time now 2018-Feb-23 20:19 UTC.
Position N 51°41' E 004°36'.

Length 120 m; draft 5.6 m.

Type: Cargo ship. MMSI: 244770273.

Date/timePositionNaut miles runAvg speedWind from/ knotsBaromVisibWave heightAir tempDewpointWater temp
2018-Feb-23 19:58N 51°41' E 004°36'0 0.0
2018-Feb-23 19:28N 51°41' E 004°36'0 0.0
2018-Feb-23 18:58N 51°41' E 004°36'0 0.0
2018-Feb-23 18:28N 51°41' E 004°36'0 0.0
2018-Feb-23 17:58N 51°41' E 004°36'0 0.0
2018-Feb-23 17:28N 51°41' E 004°36'0 0.0
2018-Feb-23 16:58N 51°41' E 004°36'0 0.0
2018-Feb-23 16:28N 51°41' E 004°36'0 0.0
2018-Feb-23 15:58N 51°41' E 004°36'0 0.0
2018-Feb-23 15:28N 51°41' E 004°36'0 0.0
2018-Feb-23 14:58N 51°41' E 004°36'0 0.0
2018-Feb-23 14:28N 51°41' E 004°36'0 0.0
2018-Feb-23 13:58N 51°41' E 004°36'0 0.0
2018-Feb-23 13:28N 51°41' E 004°36'0 0.0
2018-Feb-23 12:58N 51°41' E 004°36'0 0.0
2018-Feb-23 12:28N 51°41' E 004°36'0 0.0
2018-Feb-23 11:58N 51°41' E 004°36'0 0.0
2018-Feb-23 11:28N 51°41' E 004°36'0 0.0
2018-Feb-23 10:58N 51°41' E 004°36'0 0.0
2018-Feb-23 10:28N 51°41' E 004°36'0 0.0
2018-Feb-23 09:58N 51°41' E 004°36'0 0.0
2018-Feb-23 09:28N 51°41' E 004°36'0 0.0
2018-Feb-23 08:58N 51°41' E 004°36'0 0.0
2018-Feb-23 08:25N 51°41' E 004°36'0 0.0
2018-Feb-23 07:58N 51°41' E 004°36'0 0.0
2018-Feb-23 07:28N 51°41' E 004°36'0 0.0
2018-Feb-23 06:58N 51°41' E 004°36'0 0.0
2018-Feb-23 06:28N 51°41' E 004°36'0 0.0
2018-Feb-23 05:58N 51°41' E 004°36'0 0.0
2018-Feb-23 05:28N 51°41' E 004°36'0 0.0
2018-Feb-23 04:58N 51°41' E 004°36'0 0.0
2018-Feb-23 04:28N 51°41' E 004°36'0 0.0
2018-Feb-23 03:58N 51°41' E 004°36'0 0.0
2018-Feb-23 03:28N 51°41' E 004°36'0 0.0
2018-Feb-23 02:55N 51°41' E 004°36'0 0.0
2018-Feb-23 02:28N 51°41' E 004°36'0 0.0
2018-Feb-23 01:58N 51°41' E 004°36'0 0.0
2018-Feb-23 01:28N 51°41' E 004°36'0 0.0
2018-Feb-23 00:58N 51°41' E 004°36'0 0.0
2018-Feb-23 00:22N 51°41' E 004°36'0 0.0
2018-Feb-22 23:58N 51°41' E 004°36'0 0.0
2018-Feb-22 23:28N 51°41' E 004°36'0 0.0
2018-Feb-22 22:58N 51°41' E 004°36'0 0.0
2018-Feb-22 22:28N 51°41' E 004°36'0 0.0
2018-Feb-22 21:55N 51°41' E 004°36'0 0.0
2018-Feb-22 21:30N 51°41' E 004°36'0 0.9
2018-Feb-22 21:00N 51°41' E 004°35'2 4.1
2018-Feb-22 20:30N 51°43' E 004°37'4 8.7
2018-Feb-22 20:00N 51°47' E 004°37'4 7.7
2018-Feb-22 19:30N 51°50' E 004°33'5 9.5
2018-Feb-22 19:00N 51°50' E 004°25'4 7.3
2018-Feb-22 18:30N 51°52' E 004°20'2 3.8
2018-Feb-22 18:00N 51°54' E 004°21'3 6.9
2018-Feb-22 17:30N 51°54' E 004°27'1 2.3
2018-Feb-22 17:01N 51°54' E 004°28'0 0.0
2018-Feb-22 16:30N 51°54' E 004°28'0 0.0
2018-Feb-22 16:00N 51°54' E 004°28'0 0.0
2018-Feb-22 15:30N 51°54' E 004°28'0 0.0
2018-Feb-22 15:01N 51°54' E 004°28'0 0.0
2018-Feb-22 14:31N 51°54' E 004°28'0 0.0
2018-Feb-22 14:01N 51°54' E 004°28'0 0.0
2018-Feb-22 13:31N 51°54' E 004°28'0 0.0
2018-Feb-22 13:01N 51°54' E 004°28'0 0.0
2018-Feb-22 12:30N 51°54' E 004°28'0 0.0
2018-Feb-22 12:01N 51°54' E 004°28'0 0.0
2018-Feb-22 11:31N 51°54' E 004°28'0 0.0
2018-Feb-22 11:00N 51°54' E 004°28'0 0.0
2018-Feb-22 10:31N 51°54' E 004°28'0 0.0
2018-Feb-22 10:01N 51°54' E 004°28'0 0.0
2018-Feb-22 09:31N 51°54' E 004°28'0 0.0
2018-Feb-22 09:00N 51°54' E 004°28'0 0.0
2018-Feb-22 08:30N 51°54' E 004°28'0 0.0
2018-Feb-22 07:57N 51°54' E 004°28'0 0.0
2018-Feb-22 07:30N 51°54' E 004°28'0 0.0
2018-Feb-22 06:57N 51°54' E 004°28'0 0.0
2018-Feb-22 06:31N 51°54' E 004°28'0 0.0
2018-Feb-22 06:01N 51°54' E 004°28'0 0.0
2018-Feb-22 05:31N 51°54' E 004°28'0 0.0
2018-Feb-22 05:00N 51°54' E 004°28'0 0.0
2018-Feb-22 04:31N 51°54' E 004°28'0 0.0
2018-Feb-22 04:00N 51°54' E 004°28'0 0.0
2018-Feb-22 03:31N 51°54' E 004°28'0 0.0
2018-Feb-22 03:00N 51°54' E 004°28'0 0.0
2018-Feb-22 02:31N 51°54' E 004°28'0 0.0
2018-Feb-22 02:00N 51°54' E 004°28'0 0.0
2018-Feb-22 01:31N 51°54' E 004°28'0 0.0
2018-Feb-22 01:01N 51°54' E 004°28'0 0.0
2018-Feb-22 00:31N 51°54' E 004°28'0 0.0
2018-Feb-22 00:01N 51°54' E 004°28'0 0.0
2018-Feb-21 23:31N 51°54' E 004°28'0 0.0
2018-Feb-21 23:01N 51°54' E 004°28'0 0.0
2018-Feb-21 22:30N 51°54' E 004°28'0 0.0
2018-Feb-21 22:00N 51°54' E 004°28'0 0.0
2018-Feb-21 21:31N 51°54' E 004°28'0 0.0
2018-Feb-21 21:01N 51°54' E 004°28'0 0.0
2018-Feb-21 20:31N 51°54' E 004°28'0 0.0
2018-Feb-21 20:00N 51°54' E 004°28'0 0.0
2018-Feb-21 19:30N 51°54' E 004°28'0 0.0
2018-Feb-21 19:00N 51°54' E 004°28'0 0.0
2018-Feb-21 18:31N 51°54' E 004°28'0 0.0
2018-Feb-21 18:01N 51°54' E 004°28'0 0.0
2018-Feb-21 17:31N 51°54' E 004°28'0 0.0
2018-Feb-21 17:01N 51°54' E 004°28'0 0.0
2018-Feb-21 16:31N 51°54' E 004°28'0 0.0
2018-Feb-21 16:00N 51°54' E 004°28'0 0.0
2018-Feb-21 15:31N 51°54' E 004°28'0 0.0
2018-Feb-21 15:01N 51°54' E 004°28'0 0.0
2018-Feb-21 14:30N 51°54' E 004°28'0 0.0
2018-Feb-21 14:01N 51°54' E 004°28'0 0.0
2018-Feb-21 13:31N 51°54' E 004°28'1 1.0
2018-Feb-21 13:00N 51°54' E 004°28'4 8.2
2018-Feb-21 12:31N 51°54' E 004°21'5 9.2
2018-Feb-21 12:01N 51°55' E 004°14'510.1
2018-Feb-21 11:30N 51°58' E 004°08'510.1
2018-Feb-21 11:01N 51°60' E 003°60'611.8
2018-Feb-21 10:30N 52°00' E 003°50'4 8.3
2018-Feb-21 10:00N 52°03' E 003°46'510.0
2018-Feb-21 09:30N 52°08' E 003°46'510.8
2018-Feb-21 09:01N 52°14' E 003°46'510.5
2018-Feb-21 08:30N 52°19' E 003°47'510.8
2018-Feb-21 08:00N 52°24' E 003°49'510.3
2018-Feb-21 07:30N 52°29' E 003°51'510.5
2018-Feb-21 07:00N 52°34' E 003°53'510.2
2018-Feb-21 06:30N 52°39' E 003°55'510.0
2018-Feb-21 06:01N 52°44' E 003°56'510.2
2018-Feb-21 05:30N 52°49' E 003°57'910.4
2018-Feb-21 04:35N 52°58' E 004°02'211.4
2018-Feb-21 04:27N 52°59' E 004°04'511.7
2018-Feb-21 03:59N 53°03' E 004°11'612.1
2018-Feb-21 03:28N 53°08' E 004°18'3812.0
2018-Feb-21 00:20N 53°42' E 004°43'411.2
2018-Feb-20 23:59N 53°46' E 004°46'511.1
2018-Feb-20 23:30N 53°51' E 004°49'611.1
2018-Feb-20 22:59N 53°56' E 004°52'611.2
2018-Feb-20 22:29N 54°01' E 004°56'25611.8
2018-Feb-20 00:49N 58°17' E 005°09'411.4
2018-Feb-20 00:30N 58°21' E 005°09'610.8
2018-Feb-19 23:57N 58°27' E 005°10'510.9
2018-Feb-19 23:30N 58°32' E 005°09'612.2
2018-Feb-19 23:00N 58°38' E 005°10'612.0
2018-Feb-19 22:30N 58°44' E 005°10'611.9
2018-Feb-19 22:01N 58°50' E 005°09'612.4
2018-Feb-19 21:31N 58°56' E 005°09'612.3
2018-Feb-19 21:00N 59°02' E 005°11'713.3
2018-Feb-19 20:30N 59°07' E 005°19'612.7
2018-Feb-19 20:00N 59°13' E 005°20'612.1
2018-Feb-19 19:30N 59°19' E 005°20'510.1
2018-Feb-19 19:00N 59°24' E 005°16'611.3
2018-Feb-19 18:30N 59°30' E 005°13'713.1
2018-Feb-19 18:00N 59°36' E 005°16'713.6
2018-Feb-19 17:30N 59°41' E 005°24'5 8.5
2018-Feb-19 16:57N 59°45' E 005°29'0 0.0
2018-Feb-19 16:27N 59°45' E 005°29'0 0.0
2018-Feb-19 15:59N 59°45' E 005°29'0 0.0
2018-Feb-19 15:29N 59°45' E 005°29'0 0.0
2018-Feb-19 14:59N 59°45' E 005°29'0 0.0
2018-Feb-19 14:29N 59°45' E 005°29'0 0.0
2018-Feb-19 13:59N 59°45' E 005°29'0 0.0
2018-Feb-19 13:29N 59°45' E 005°29'0 0.0
2018-Feb-19 13:00N 59°45' E 005°29'0 0.0
2018-Feb-19 12:26N 59°45' E 005°29'0 0.0
2018-Feb-19 11:59N 59°45' E 005°29'0 0.0
2018-Feb-19 11:29N 59°45' E 005°29'0 0.0
2018-Feb-19 10:56N 59°45' E 005°29'0 0.0
2018-Feb-19 10:29N 59°45' E 005°29'0 0.0
2018-Feb-19 09:56N 59°45' E 005°29'0 0.0
2018-Feb-19 09:29N 59°45' E 005°29'0 0.0
2018-Feb-19 08:56N 59°45' E 005°29'0 0.0
2018-Feb-19 08:29N 59°45' E 005°29'0 0.0
2018-Feb-19 07:59N 59°45' E 005°29'0 0.0
2018-Feb-19 07:29N 59°45' E 005°29'0 0.0
2018-Feb-19 06:59N 59°45' E 005°29'0 0.0
2018-Feb-19 06:26N 59°45' E 005°29'0 0.0
2018-Feb-19 05:59N 59°45' E 005°29'0 0.0
2018-Feb-19 05:29N 59°45' E 005°29'0 0.0
2018-Feb-19 04:59N 59°45' E 005°29'0 0.0
2018-Feb-19 04:29N 59°45' E 005°29'0 0.0
2018-Feb-19 03:56N 59°45' E 005°29'0 0.0
2018-Feb-19 03:20N 59°45' E 005°29'0 0.0
2018-Feb-19 02:59N 59°45' E 005°29'0 0.0
2018-Feb-19 02:29N 59°45' E 005°29'0 0.0
2018-Feb-19 02:00N 59°45' E 005°29'0 0.0
2018-Feb-19 01:29N 59°45' E 005°29'0 0.0
2018-Feb-19 00:56N 59°45' E 005°29'0 0.0
2018-Feb-19 00:23N 59°45' E 005°29'0 0.0
2018-Feb-19 00:00N 59°45' E 005°29'0 0.0
2018-Feb-18 23:29N 59°45' E 005°29'0 0.0
2018-Feb-18 22:59N 59°45' E 005°29'0 0.0
2018-Feb-18 22:29N 59°45' E 005°29'0 0.0
2018-Feb-18 21:57N 59°45' E 005°29'0 0.0
2018-Feb-18 21:29N 59°45' E 005°29'0 0.0
2018-Feb-18 21:00N 59°45' E 005°29'0 0.0
2018-Feb-18 20:26N 59°45' E 005°29'0 0.0
2018-Feb-18 19:59N 59°45' E 005°29'0 0.0
2018-Feb-18 19:29N 59°45' E 005°29'0 0.0
2018-Feb-18 18:59N 59°45' E 005°29'0 0.0
2018-Feb-18 18:29N 59°45' E 005°29'0 0.0
2018-Feb-18 18:00N 59°45' E 005°29'0 0.0
2018-Feb-18 17:23N 59°45' E 005°29'0 0.0
2018-Feb-18 16:59N 59°45' E 005°29'0 0.0
2018-Feb-18 16:29N 59°45' E 005°29'0 0.0
2018-Feb-18 15:59N 59°45' E 005°29'0 0.0
2018-Feb-18 15:29N 59°45' E 005°29'0 0.0
2018-Feb-18 14:59N 59°45' E 005°29'0 0.0
2018-Feb-18 14:29N 59°45' E 005°29'0 0.0
2018-Feb-18 13:59N 59°45' E 005°29'0 0.0
2018-Feb-18 13:27N 59°45' E 005°29'0 0.0
2018-Feb-18 12:53N 59°45' E 005°29'0 0.0
2018-Feb-18 12:29N 59°45' E 005°29'0 0.0
2018-Feb-18 11:59N 59°45' E 005°29'0 0.0
2018-Feb-18 11:30N 59°45' E 005°29'0 0.0
2018-Feb-18 11:00N 59°45' E 005°29'0 0.0
2018-Feb-18 10:30N 59°45' E 005°29'0 0.0
2018-Feb-18 09:59N 59°45' E 005°29'0 0.0
2018-Feb-18 09:29N 59°45' E 005°29'0 0.0
2018-Feb-18 08:53N 59°45' E 005°29'0 0.0
2018-Feb-18 08:29N 59°45' E 005°29'0 0.0
2018-Feb-18 07:59N 59°45' E 005°29'0 0.0
2018-Feb-18 07:26N 59°45' E 005°29'0 0.0
2018-Feb-18 07:00N 59°45' E 005°29'0 0.0
2018-Feb-18 06:29N 59°45' E 005°29'0 0.0
2018-Feb-18 05:59N 59°45' E 005°29'0 0.0
2018-Feb-18 05:29N 59°45' E 005°29'0 0.0
2018-Feb-18 05:00N 59°45' E 005°29'0 0.0
2018-Feb-18 04:29N 59°45' E 005°29'0 0.0
2018-Feb-18 03:59N 59°45' E 005°29'0 0.0
2018-Feb-18 03:26N 59°45' E 005°29'0 0.0
2018-Feb-18 02:59N 59°45' E 005°29'0 0.0
2018-Feb-18 02:30N 59°45' E 005°29'0 0.0
2018-Feb-18 01:53N 59°45' E 005°29'0 0.0
2018-Feb-18 01:29N 59°45' E 005°29'0 0.0
2018-Feb-18 01:00N 59°45' E 005°29'3 6.6
2018-Feb-18 00:29N 59°42' E 005°26'713.9
2018-Feb-18 00:00N 59°37' E 005°17'713.4
2018-Feb-17 23:30N 59°31' E 005°13'713.1
2018-Feb-17 23:01N 59°25' E 005°15'612.4
2018-Feb-17 22:30N 59°19' E 005°20'611.4
2018-Feb-17 22:00N 59°13' E 005°21'713.1
2018-Feb-17 21:28N 59°06' E 005°21'613.2
2018-Feb-17 21:00N 59°00' E 005°20'713.3
2018-Feb-17 20:30N 58°53' E 005°20'613.0
2018-Feb-17 20:00N 58°47' E 005°20'611.6
2018-Feb-17 19:30N 58°41' E 005°19'611.9
2018-Feb-17 19:00N 58°35' E 005°18'611.6
2018-Feb-17 18:31N 58°29' E 005°18'611.1
2018-Feb-17 18:00N 58°24' E 005°21'713.1
2018-Feb-17 17:30N 58°19' E 005°29'612.8
2018-Feb-17 17:01N 58°13' E 005°32'36612.8
2018-Feb-16 12:23N 52°15' E 003°20'512.6
2018-Feb-16 11:57N 52°11' E 003°14'612.2
2018-Feb-16 11:30N 52°07' E 003°08'612.0
2018-Feb-16 11:00N 52°02' E 003°01'611.8
2018-Feb-16 10:29N 51°58' E 002°55'1811.3
2018-Feb-16 08:54N 51°44' E 002°36'511.1
2018-Feb-16 08:29N 51°40' E 002°31'511.1
2018-Feb-16 08:00N 51°36' E 002°26'611.1
2018-Feb-16 07:30N 51°32' E 002°20'611.4
2018-Feb-16 07:00N 51°27' E 002°15'611.7
2018-Feb-16 06:30N 51°22' E 002°11'612.1
2018-Feb-16 06:00N 51°17' E 002°06'611.7
2018-Feb-16 05:30N 51°12' E 001°60'612.4
2018-Feb-16 05:00N 51°09' E 001°52'612.5
2018-Feb-16 04:30N 51°04' E 001°45'612.9
2018-Feb-16 04:01N 50°60' E 001°38'713.2
2018-Feb-16 03:30N 50°55' E 001°31'713.8
2018-Feb-16 03:00N 50°48' E 001°26'713.5
2018-Feb-16 02:28N 50°42' E 001°21'613.3
2018-Feb-16 02:00N 50°38' E 001°14'713.2
2018-Feb-16 01:28N 50°34' E 001°05'613.0
2018-Feb-16 00:59N 50°31' E 000°56'613.1
2018-Feb-16 00:31N 50°29' E 000°46'713.0
2018-Feb-16 00:00N 50°28' E 000°36'713.1
2018-Feb-15 23:30N 50°26' E 000°27'713.4
2018-Feb-15 23:01N 50°24' E 000°17'714.0
2018-Feb-15 22:30N 50°22' E 000°06'714.4
2018-Feb-15 22:00N 50°20' W 000°05'714.9
2018-Feb-15 21:30N 50°18' W 000°16'815.4
2018-Feb-15 20:58N 50°15' W 000°28'815.7
2018-Feb-15 20:27N 50°13' W 000°41'815.8
2018-Feb-15 19:58N 50°11' W 000°52'715.8
2018-Feb-15 19:30N 50°09' W 001°03'815.8
2018-Feb-15 19:00N 50°06' W 001°15'815.4
2018-Feb-15 18:30N 50°04' W 001°26'814.7
2018-Feb-15 17:59N 50°02' W 001°38'714.0
2018-Feb-15 17:30N 50°01' W 001°48'2012.4
2018-Feb-15 15:53N 49°55' W 002°18'511.2
2018-Feb-15 15:27N 49°53' W 002°25'610.9
2018-Feb-15 14:52N 49°51' W 002°34'410.8
2018-Feb-15 14:30N 49°50' W 002°40'510.8
2018-Feb-15 14:00N 49°49' W 002°48'710.8
2018-Feb-15 13:24N 49°46' W 002°57'511.0
2018-Feb-15 12:58N 49°44' W 003°04'511.2
2018-Feb-15 12:29N 49°41' W 003°11'15412.6
2018-Feb-15 00:17N 48°03' W 006°11'1013.6
2018-Feb-14 23:31N 47°54' W 006°18'013.3
2018-Feb-14 23:29N 47°54' W 006°19'613.1
2018-Feb-14 23:00N 47°48' W 006°23'712.9
2018-Feb-14 22:28N 47°42' W 006°28'  

Dump ship's entire track history